sensor_id;sensor_type;location;lat;lon;timestamp;temperature;humidity
11569;DHT22;5840;46.894;15.542;2023-02-28T00:00:12;0.10;96.80
11569;DHT22;5840;46.894;15.542;2023-02-28T00:02:41;0.10;97.20
11569;DHT22;5840;46.894;15.542;2023-02-28T00:05:10;0.10;97.20
11569;DHT22;5840;46.894;15.542;2023-02-28T00:07:38;0.00;97.90
11569;DHT22;5840;46.894;15.542;2023-02-28T00:10:06;0.00;97.90
11569;DHT22;5840;46.894;15.542;2023-02-28T00:12:35;0.00;98.10
11569;DHT22;5840;46.894;15.542;2023-02-28T00:15:05;0.00;98.40
11569;DHT22;5840;46.894;15.542;2023-02-28T00:17:32;0.00;98.30
11569;DHT22;5840;46.894;15.542;2023-02-28T00:19:59;0.00;98.50
11569;DHT22;5840;46.894;15.542;2023-02-28T00:22:35;0.00;98.50
11569;DHT22;5840;46.894;15.542;2023-02-28T00:25:03;0.00;99.30
11569;DHT22;5840;46.894;15.542;2023-02-28T00:27:34;0.10;99.70
11569;DHT22;5840;46.894;15.542;2023-02-28T00:30:01;0.10;99.40
11569;DHT22;5840;46.894;15.542;2023-02-28T00:32:28;0.10;99.90
11569;DHT22;5840;46.894;15.542;2023-02-28T00:34:55;0.00;99.90
11569;DHT22;5840;46.894;15.542;2023-02-28T00:37:22;0.10;99.80
11569;DHT22;5840;46.894;15.542;2023-02-28T00:39:49;0.10;99.50
11569;DHT22;5840;46.894;15.542;2023-02-28T00:42:16;0.10;99.20
11569;DHT22;5840;46.894;15.542;2023-02-28T00:44:45;0.10;99.10
11569;DHT22;5840;46.894;15.542;2023-02-28T00:47:12;0.10;98.50
11569;DHT22;5840;46.894;15.542;2023-02-28T00:49:39;0.10;98.50
11569;DHT22;5840;46.894;15.542;2023-02-28T00:52:06;0.10;98.40
11569;DHT22;5840;46.894;15.542;2023-02-28T00:54:33;0.10;98.30
11569;DHT22;5840;46.894;15.542;2023-02-28T00:57:00;0.10;98.30
11569;DHT22;5840;46.894;15.542;2023-02-28T00:59:27;0.10;98.40
11569;DHT22;5840;46.894;15.542;2023-02-28T01:01:55;0.10;98.00
11569;DHT22;5840;46.894;15.542;2023-02-28T01:04:22;0.00;97.80
11569;DHT22;5840;46.894;15.542;2023-02-28T01:06:49;0.00;97.70
11569;DHT22;5840;46.894;15.542;2023-02-28T01:09:16;0.10;97.80
11569;DHT22;5840;46.894;15.542;2023-02-28T01:11:43;0.10;98.20
11569;DHT22;5840;46.894;15.542;2023-02-28T01:14:17;0.10;98.50
11569;DHT22;5840;46.894;15.542;2023-02-28T01:16:44;0.00;98.20
11569;DHT22;5840;46.894;15.542;2023-02-28T01:19:13;0.10;98.00
11569;DHT22;5840;46.894;15.542;2023-02-28T01:21:40;0.10;97.80
11569;DHT22;5840;46.894;15.542;2023-02-28T01:24:07;0.10;98.00
11569;DHT22;5840;46.894;15.542;2023-02-28T01:26:34;0.10;98.30
11569;DHT22;5840;46.894;15.542;2023-02-28T01:29:01;0.10;98.30
11569;DHT22;5840;46.894;15.542;2023-02-28T01:31:28;0.10;98.20
11569;DHT22;5840;46.894;15.542;2023-02-28T01:33:56;0.20;96.90
11569;DHT22;5840;46.894;15.542;2023-02-28T01:36:25;0.20;97.10
11569;DHT22;5840;46.894;15.542;2023-02-28T01:38:52;0.20;97.30
11569;DHT22;5840;46.894;15.542;2023-02-28T01:41:22;0.20;97.90
11569;DHT22;5840;46.894;15.542;2023-02-28T01:43:57;0.20;98.10
11569;DHT22;5840;46.894;15.542;2023-02-28T01:46:25;0.20;98.00
11569;DHT22;5840;46.894;15.542;2023-02-28T01:48:56;0.10;98.00
11569;DHT22;5840;46.894;15.542;2023-02-28T01:51:29;0.10;98.10
11569;DHT22;5840;46.894;15.542;2023-02-28T01:54:00;0.10;98.30
11569;DHT22;5840;46.894;15.542;2023-02-28T01:56:32;0.20;98.00
11569;DHT22;5840;46.894;15.542;2023-02-28T01:59:01;0.20;97.80
11569;DHT22;5840;46.894;15.542;2023-02-28T02:01:29;0.20;97.40
11569;DHT22;5840;46.894;15.542;2023-02-28T02:04:00;0.20;97.20
11569;DHT22;5840;46.894;15.542;2023-02-28T02:06:31;0.20;97.50
11569;DHT22;5840;46.894;15.542;2023-02-28T02:09:00;0.30;98.10
11569;DHT22;5840;46.894;15.542;2023-02-28T02:11:29;0.30;98.20
11569;DHT22;5840;46.894;15.542;2023-02-28T02:17:07;0.20;99.00
11569;DHT22;5840;46.894;15.542;2023-02-28T02:22:54;0.20;99.40
11569;DHT22;5840;46.894;15.542;2023-02-28T02:25:30;0.20;99.30
11569;DHT22;5840;46.894;15.542;2023-02-28T02:28:18;0.20;99.30
11569;DHT22;5840;46.894;15.542;2023-02-28T02:34:22;0.20;99.50
11569;DHT22;5840;46.894;15.542;2023-02-28T02:36:54;0.20;99.90
11569;DHT22;5840;46.894;15.542;2023-02-28T02:39:30;0.20;99.90
11569;DHT22;5840;46.894;15.542;2023-02-28T02:42:01;0.20;99.90
11569;DHT22;5840;46.894;15.542;2023-02-28T02:44:34;0.20;99.90
11569;DHT22;5840;46.894;15.542;2023-02-28T02:47:08;0.10;99.70
11569;DHT22;5840;46.894;15.542;2023-02-28T02:49:38;0.10;99.30
11569;DHT22;5840;46.894;15.542;2023-02-28T02:52:09;0.10;99.20
11569;DHT22;5840;46.894;15.542;2023-02-28T02:54:40;0.10;99.20
11569;DHT22;5840;46.894;15.542;2023-02-28T02:57:10;0.10;99.30
11569;DHT22;5840;46.894;15.542;2023-02-28T02:59:40;0.10;99.30
11569;DHT22;5840;46.894;15.542;2023-02-28T03:02:11;0.10;98.80
11569;DHT22;5840;46.894;15.542;2023-02-28T03:04:43;0.10;98.70
11569;DHT22;5840;46.894;15.542;2023-02-28T03:07:10;0.20;98.70
11569;DHT22;5840;46.894;15.542;2023-02-28T03:09:37;0.20;99.00
11569;DHT22;5840;46.894;15.542;2023-02-28T03:14:43;0.20;99.90
11569;DHT22;5840;46.894;15.542;2023-02-28T03:17:40;0.20;99.90
11569;DHT22;5840;46.894;15.542;2023-02-28T03:20:17;0.20;99.90
11569;DHT22;5840;46.894;15.542;2023-02-28T03:23:00;0.20;99.90
11569;DHT22;5840;46.894;15.542;2023-02-28T03:25:35;0.20;99.80
11569;DHT22;5840;46.894;15.542;2023-02-28T03:28:09;0.10;99.90
11569;DHT22;5840;46.894;15.542;2023-02-28T03:30:45;0.10;99.70
11569;DHT22;5840;46.894;15.542;2023-02-28T03:33:17;0.10;99.80
11569;DHT22;5840;46.894;15.542;2023-02-28T03:35:52;0.10;99.90
11569;DHT22;5840;46.894;15.542;2023-02-28T03:38:24;0.10;99.90
11569;DHT22;5840;46.894;15.542;2023-02-28T03:40:58;0.10;99.90
11569;DHT22;5840;46.894;15.542;2023-02-28T03:43:31;0.10;99.90
11569;DHT22;5840;46.894;15.542;2023-02-28T03:46:00;0.10;99.90
11569;DHT22;5840;46.894;15.542;2023-02-28T03:48:33;0.10;99.90
11569;DHT22;5840;46.894;15.542;2023-02-28T03:51:07;0.10;99.90
11569;DHT22;5840;46.894;15.542;2023-02-28T03:53:38;0.10;99.90
11569;DHT22;5840;46.894;15.542;2023-02-28T03:56:13;0.10;99.90
11569;DHT22;5840;46.894;15.542;2023-02-28T03:58:46;0.00;99.90
11569;DHT22;5840;46.894;15.542;2023-02-28T04:01:19;0.00;99.90
11569;DHT22;5840;46.894;15.542;2023-02-28T04:03:47;0.00;99.90
11569;DHT22;5840;46.894;15.542;2023-02-28T04:06:18;0.10;99.90
11569;DHT22;5840;46.894;15.542;2023-02-28T04:08:46;0.10;99.90
11569;DHT22;5840;46.894;15.542;2023-02-28T04:11:20;0.10;99.90
11569;DHT22;5840;46.894;15.542;2023-02-28T04:13:48;0.10;99.90
11569;DHT22;5840;46.894;15.542;2023-02-28T04:16:15;0.10;99.90
11569;DHT22;5840;46.894;15.542;2023-02-28T04:18:42;0.10;99.50
11569;DHT22;5840;46.894;15.542;2023-02-28T04:21:10;0.10;99.40
11569;DHT22;5840;46.894;15.542;2023-02-28T04:23:38;0.20;99.60
11569;DHT22;5840;46.894;15.542;2023-02-28T04:26:05;0.20;99.80
11569;DHT22;5840;46.894;15.542;2023-02-28T04:28:32;0.20;99.30
11569;DHT22;5840;46.894;15.542;2023-02-28T04:31:01;0.20;99.50
11569;DHT22;5840;46.894;15.542;2023-02-28T04:33:31;0.20;99.80
11569;DHT22;5840;46.894;15.542;2023-02-28T04:35:59;0.20;99.80
11569;DHT22;5840;46.894;15.542;2023-02-28T04:38:26;0.20;99.90
11569;DHT22;5840;46.894;15.542;2023-02-28T04:40:57;0.20;99.90
11569;DHT22;5840;46.894;15.542;2023-02-28T04:43:24;0.20;99.90
11569;DHT22;5840;46.894;15.542;2023-02-28T04:45:52;0.20;99.90
11569;DHT22;5840;46.894;15.542;2023-02-28T04:48:20;0.20;99.90
11569;DHT22;5840;46.894;15.542;2023-02-28T04:50:47;0.10;99.90
11569;DHT22;5840;46.894;15.542;2023-02-28T04:53:14;0.10;99.90
11569;DHT22;5840;46.894;15.542;2023-02-28T04:55:40;0.10;99.90
11569;DHT22;5840;46.894;15.542;2023-02-28T04:58:09;0.10;99.90
11569;DHT22;5840;46.894;15.542;2023-02-28T05:00:36;0.10;99.90
11569;DHT22;5840;46.894;15.542;2023-02-28T05:03:03;0.10;99.90
11569;DHT22;5840;46.894;15.542;2023-02-28T05:05:30;0.10;99.90
11569;DHT22;5840;46.894;15.542;2023-02-28T05:07:57;0.10;99.90
11569;DHT22;5840;46.894;15.542;2023-02-28T05:10:24;0.10;99.90
11569;DHT22;5840;46.894;15.542;2023-02-28T05:12:51;0.10;99.90
11569;DHT22;5840;46.894;15.542;2023-02-28T05:15:20;0.10;99.90
11569;DHT22;5840;46.894;15.542;2023-02-28T05:17:47;0.10;99.90
11569;DHT22;5840;46.894;15.542;2023-02-28T05:20:14;0.00;99.90
11569;DHT22;5840;46.894;15.542;2023-02-28T05:22:42;0.00;99.90
11569;DHT22;5840;46.894;15.542;2023-02-28T05:25:11;0.00;99.90
11569;DHT22;5840;46.894;15.542;2023-02-28T05:27:39;0.00;99.90
11569;DHT22;5840;46.894;15.542;2023-02-28T05:30:07;0.00;99.90
11569;DHT22;5840;46.894;15.542;2023-02-28T05:32:37;0.00;99.90
11569;DHT22;5840;46.894;15.542;2023-02-28T05:35:05;0.00;99.90
11569;DHT22;5840;46.894;15.542;2023-02-28T05:37:32;0.00;99.90
11569;DHT22;5840;46.894;15.542;2023-02-28T05:39:59;0.00;99.90
11569;DHT22;5840;46.894;15.542;2023-02-28T05:42:26;0.00;99.90
11569;DHT22;5840;46.894;15.542;2023-02-28T05:44:53;0.00;99.90
11569;DHT22;5840;46.894;15.542;2023-02-28T05:47:19;0.00;99.90
11569;DHT22;5840;46.894;15.542;2023-02-28T05:49:48;0.00;99.90
11569;DHT22;5840;46.894;15.542;2023-02-28T05:52:15;0.00;99.90
11569;DHT22;5840;46.894;15.542;2023-02-28T05:54:42;0.00;99.90
11569;DHT22;5840;46.894;15.542;2023-02-28T05:57:09;0.00;99.90
11569;DHT22;5840;46.894;15.542;2023-02-28T05:59:36;0.00;99.90
11569;DHT22;5840;46.894;15.542;2023-02-28T06:02:05;0.00;99.90
11569;DHT22;5840;46.894;15.542;2023-02-28T06:04:32;0.00;99.90
11569;DHT22;5840;46.894;15.542;2023-02-28T06:07:00;0.00;99.90
11569;DHT22;5840;46.894;15.542;2023-02-28T06:09:29;0.00;99.90
11569;DHT22;5840;46.894;15.542;2023-02-28T06:11:57;0.00;99.90
11569;DHT22;5840;46.894;15.542;2023-02-28T06:14:24;0.00;99.90
11569;DHT22;5840;46.894;15.542;2023-02-28T06:16:51;0.00;99.90
11569;DHT22;5840;46.894;15.542;2023-02-28T06:19:19;0.00;99.90
11569;DHT22;5840;46.894;15.542;2023-02-28T06:21:49;0.00;99.90
11569;DHT22;5840;46.894;15.542;2023-02-28T06:24:19;0.00;99.90
11569;DHT22;5840;46.894;15.542;2023-02-28T06:26:46;0.00;99.90
11569;DHT22;5840;46.894;15.542;2023-02-28T06:29:14;0.10;99.90
11569;DHT22;5840;46.894;15.542;2023-02-28T06:31:42;0.10;99.90
11569;DHT22;5840;46.894;15.542;2023-02-28T06:34:10;0.10;99.90
11569;DHT22;5840;46.894;15.542;2023-02-28T06:36:38;0.10;99.90
11569;DHT22;5840;46.894;15.542;2023-02-28T06:39:06;0.10;99.90
11569;DHT22;5840;46.894;15.542;2023-02-28T06:41:35;0.10;99.90
11569;DHT22;5840;46.894;15.542;2023-02-28T06:44:03;0.10;99.90
11569;DHT22;5840;46.894;15.542;2023-02-28T06:46:32;0.10;99.90
11569;DHT22;5840;46.894;15.542;2023-02-28T06:48:59;0.10;99.90
11569;DHT22;5840;46.894;15.542;2023-02-28T06:51:26;0.10;99.90
11569;DHT22;5840;46.894;15.542;2023-02-28T06:53:53;0.10;99.90
11569;DHT22;5840;46.894;15.542;2023-02-28T06:56:19;0.10;99.90
11569;DHT22;5840;46.894;15.542;2023-02-28T06:58:49;0.10;99.90
11569;DHT22;5840;46.894;15.542;2023-02-28T07:01:16;0.10;99.90
11569;DHT22;5840;46.894;15.542;2023-02-28T07:03:44;0.20;99.90
11569;DHT22;5840;46.894;15.542;2023-02-28T07:06:11;0.20;99.90
11569;DHT22;5840;46.894;15.542;2023-02-28T07:08:38;0.20;99.90
11569;DHT22;5840;46.894;15.542;2023-02-28T07:11:06;0.20;99.90
11569;DHT22;5840;46.894;15.542;2023-02-28T07:13:33;0.20;99.90
11569;DHT22;5840;46.894;15.542;2023-02-28T07:16:03;0.20;99.90
11569;DHT22;5840;46.894;15.542;2023-02-28T07:18:31;0.30;99.90
11569;DHT22;5840;46.894;15.542;2023-02-28T07:21:01;0.30;99.90
11569;DHT22;5840;46.894;15.542;2023-02-28T07:23:28;0.30;99.90
11569;DHT22;5840;46.894;15.542;2023-02-28T07:25:55;0.30;99.90
11569;DHT22;5840;46.894;15.542;2023-02-28T07:28:22;0.30;99.90
11569;DHT22;5840;46.894;15.542;2023-02-28T07:30:48;0.40;99.90
11569;DHT22;5840;46.894;15.542;2023-02-28T07:33:18;0.30;99.90
11569;DHT22;5840;46.894;15.542;2023-02-28T07:35:45;0.30;99.90
11569;DHT22;5840;46.894;15.542;2023-02-28T07:38:12;0.30;99.90
11569;DHT22;5840;46.894;15.542;2023-02-28T07:40:39;0.30;99.90
11569;DHT22;5840;46.894;15.542;2023-02-28T07:43:06;0.20;99.90
11569;DHT22;5840;46.894;15.542;2023-02-28T07:45:33;0.20;99.90
11569;DHT22;5840;46.894;15.542;2023-02-28T07:48:01;0.20;99.90
11569;DHT22;5840;46.894;15.542;2023-02-28T07:50:30;0.30;99.90
11569;DHT22;5840;46.894;15.542;2023-02-28T07:52:57;0.30;99.90
11569;DHT22;5840;46.894;15.542;2023-02-28T07:55:24;0.30;99.90
11569;DHT22;5840;46.894;15.542;2023-02-28T07:57:52;0.30;99.90
11569;DHT22;5840;46.894;15.542;2023-02-28T08:00:19;0.30;99.90
11569;DHT22;5840;46.894;15.542;2023-02-28T08:02:47;0.30;99.90
11569;DHT22;5840;46.894;15.542;2023-02-28T08:05:14;0.30;99.90
11569;DHT22;5840;46.894;15.542;2023-02-28T08:07:42;0.30;99.90
11569;DHT22;5840;46.894;15.542;2023-02-28T08:10:10;0.40;99.90
11569;DHT22;5840;46.894;15.542;2023-02-28T08:12:37;0.40;99.90
11569;DHT22;5840;46.894;15.542;2023-02-28T08:15:04;0.40;99.90
11569;DHT22;5840;46.894;15.542;2023-02-28T08:17:32;0.40;99.90
11569;DHT22;5840;46.894;15.542;2023-02-28T08:19:59;0.40;99.90
11569;DHT22;5840;46.894;15.542;2023-02-28T08:22:25;0.50;99.90
11569;DHT22;5840;46.894;15.542;2023-02-28T08:24:54;0.50;99.90
11569;DHT22;5840;46.894;15.542;2023-02-28T08:27:21;0.50;99.90
11569;DHT22;5840;46.894;15.542;2023-02-28T08:29:48;0.50;99.90
11569;DHT22;5840;46.894;15.542;2023-02-28T08:32:15;0.60;99.90
11569;DHT22;5840;46.894;15.542;2023-02-28T08:34:42;0.50;99.90
11569;DHT22;5840;46.894;15.542;2023-02-28T08:37:09;0.60;99.90
11569;DHT22;5840;46.894;15.542;2023-02-28T08:39:36;0.60;99.90
11569;DHT22;5840;46.894;15.542;2023-02-28T08:42:05;0.70;99.90
11569;DHT22;5840;46.894;15.542;2023-02-28T08:44:32;0.70;99.90
11569;DHT22;5840;46.894;15.542;2023-02-28T08:46:59;0.80;99.90
11569;DHT22;5840;46.894;15.542;2023-02-28T08:49:26;0.80;99.90
11569;DHT22;5840;46.894;15.542;2023-02-28T08:51:54;0.80;99.90
11569;DHT22;5840;46.894;15.542;2023-02-28T08:54:22;0.90;99.90
11569;DHT22;5840;46.894;15.542;2023-02-28T08:56:49;0.90;99.90
11569;DHT22;5840;46.894;15.542;2023-02-28T08:59:18;1.00;99.90
11569;DHT22;5840;46.894;15.542;2023-02-28T09:01:45;1.00;99.90
11569;DHT22;5840;46.894;15.542;2023-02-28T09:04:12;1.00;99.90
11569;DHT22;5840;46.894;15.542;2023-02-28T09:06:39;1.00;99.90
11569;DHT22;5840;46.894;15.542;2023-02-28T09:09:06;1.00;99.90
11569;DHT22;5840;46.894;15.542;2023-02-28T09:11:35;1.10;99.90
11569;DHT22;5840;46.894;15.542;2023-02-28T09:14:02;1.10;99.90
11569;DHT22;5840;46.894;15.542;2023-02-28T09:16:32;1.10;99.90
11569;DHT22;5840;46.894;15.542;2023-02-28T09:18:59;1.10;99.90
11569;DHT22;5840;46.894;15.542;2023-02-28T09:21:27;1.20;99.90
11569;DHT22;5840;46.894;15.542;2023-02-28T09:23:54;1.20;99.90
11569;DHT22;5840;46.894;15.542;2023-02-28T09:26:23;1.20;99.90
11569;DHT22;5840;46.894;15.542;2023-02-28T09:28:51;1.20;99.90
11569;DHT22;5840;46.894;15.542;2023-02-28T09:31:21;1.10;99.90
11569;DHT22;5840;46.894;15.542;2023-02-28T09:33:51;1.10;99.90
11569;DHT22;5840;46.894;15.542;2023-02-28T09:36:18;1.10;99.90
11569;DHT22;5840;46.894;15.542;2023-02-28T09:38:45;1.10;99.90
11569;DHT22;5840;46.894;15.542;2023-02-28T09:41:14;1.10;99.90
11569;DHT22;5840;46.894;15.542;2023-02-28T09:43:44;1.20;99.90
11569;DHT22;5840;46.894;15.542;2023-02-28T09:46:25;1.20;99.90
11569;DHT22;5840;46.894;15.542;2023-02-28T09:48:56;1.20;99.90
11569;DHT22;5840;46.894;15.542;2023-02-28T09:51:30;1.20;99.90
11569;DHT22;5840;46.894;15.542;2023-02-28T09:53:59;1.30;99.90
11569;DHT22;5840;46.894;15.542;2023-02-28T09:56:30;1.30;99.90
11569;DHT22;5840;46.894;15.542;2023-02-28T09:59:01;1.30;99.90
11569;DHT22;5840;46.894;15.542;2023-02-28T10:01:34;1.40;99.90
11569;DHT22;5840;46.894;15.542;2023-02-28T10:04:10;1.40;99.90
11569;DHT22;5840;46.894;15.542;2023-02-28T10:06:44;1.40;99.90
11569;DHT22;5840;46.894;15.542;2023-02-28T10:09:17;1.50;99.90
11569;DHT22;5840;46.894;15.542;2023-02-28T10:11:46;1.50;99.90
11569;DHT22;5840;46.894;15.542;2023-02-28T10:14:16;1.50;99.90
11569;DHT22;5840;46.894;15.542;2023-02-28T10:16:46;1.60;99.90
11569;DHT22;5840;46.894;15.542;2023-02-28T10:19:22;1.60;99.90
11569;DHT22;5840;46.894;15.542;2023-02-28T10:21:56;1.60;99.90
11569;DHT22;5840;46.894;15.542;2023-02-28T10:24:30;1.60;99.90
11569;DHT22;5840;46.894;15.542;2023-02-28T10:27:00;1.70;99.90
11569;DHT22;5840;46.894;15.542;2023-02-28T10:29:28;1.70;99.90
11569;DHT22;5840;46.894;15.542;2023-02-28T10:32:01;1.70;99.90
11569;DHT22;5840;46.894;15.542;2023-02-28T10:34:29;1.70;99.90
11569;DHT22;5840;46.894;15.542;2023-02-28T10:36:58;1.70;99.90
11569;DHT22;5840;46.894;15.542;2023-02-28T10:39:41;1.80;99.90
11569;DHT22;5840;46.894;15.542;2023-02-28T10:42:23;1.90;99.90
11569;DHT22;5840;46.894;15.542;2023-02-28T10:45:05;1.90;99.90
11569;DHT22;5840;46.894;15.542;2023-02-28T10:47:34;1.90;99.90
11569;DHT22;5840;46.894;15.542;2023-02-28T10:50:04;2.00;99.90
11569;DHT22;5840;46.894;15.542;2023-02-28T10:52:37;2.00;99.90
11569;DHT22;5840;46.894;15.542;2023-02-28T10:55:19;2.00;99.90
11569;DHT22;5840;46.894;15.542;2023-02-28T10:57:46;2.10;99.90
11569;DHT22;5840;46.894;15.542;2023-02-28T11:00:16;2.20;99.90
11569;DHT22;5840;46.894;15.542;2023-02-28T11:02:44;2.20;99.90
11569;DHT22;5840;46.894;15.542;2023-02-28T11:05:31;2.10;99.90
11569;DHT22;5840;46.894;15.542;2023-02-28T11:08:05;2.10;99.90
11569;DHT22;5840;46.894;15.542;2023-02-28T11:10:33;2.20;99.90
11569;DHT22;5840;46.894;15.542;2023-02-28T11:13:01;2.30;99.90
11569;DHT22;5840;46.894;15.542;2023-02-28T11:15:30;2.40;99.90
11569;DHT22;5840;46.894;15.542;2023-02-28T11:17:59;2.50;99.90
11569;DHT22;5840;46.894;15.542;2023-02-28T11:20:30;2.60;99.90
11569;DHT22;5840;46.894;15.542;2023-02-28T11:22:59;2.70;99.90
11569;DHT22;5840;46.894;15.542;2023-02-28T11:25:30;2.80;99.90
11569;DHT22;5840;46.894;15.542;2023-02-28T11:27:58;2.80;99.90
11569;DHT22;5840;46.894;15.542;2023-02-28T11:30:29;2.80;99.90
11569;DHT22;5840;46.894;15.542;2023-02-28T11:32:56;2.90;99.90
11569;DHT22;5840;46.894;15.542;2023-02-28T11:35:26;2.90;99.90
11569;DHT22;5840;46.894;15.542;2023-02-28T11:37:54;3.00;99.90
11569;DHT22;5840;46.894;15.542;2023-02-28T11:40:28;3.00;99.90
11569;DHT22;5840;46.894;15.542;2023-02-28T11:43:20;3.00;99.90
11569;DHT22;5840;46.894;15.542;2023-02-28T11:46:06;3.00;99.90
11569;DHT22;5840;46.894;15.542;2023-02-28T11:48:46;3.20;99.90
11569;DHT22;5840;46.894;15.542;2023-02-28T11:51:21;3.10;99.90
11569;DHT22;5840;46.894;15.542;2023-02-28T11:54:29;3.10;99.90
11569;DHT22;5840;46.894;15.542;2023-02-28T11:57:03;3.10;99.90
11569;DHT22;5840;46.894;15.542;2023-02-28T11:59:48;3.00;99.90
11569;DHT22;5840;46.894;15.542;2023-02-28T12:02:25;2.90;99.90
11569;DHT22;5840;46.894;15.542;2023-02-28T12:05:14;2.70;99.90
11569;DHT22;5840;46.894;15.542;2023-02-28T12:07:51;2.70;99.90
11569;DHT22;5840;46.894;15.542;2023-02-28T12:10:27;2.70;99.90
11569;DHT22;5840;46.894;15.542;2023-02-28T12:13:06;2.70;99.90
11569;DHT22;5840;46.894;15.542;2023-02-28T12:18:53;2.70;99.90
11569;DHT22;5840;46.894;15.542;2023-02-28T12:21:31;2.60;99.90
11569;DHT22;5840;46.894;15.542;2023-02-28T12:24:24;2.50;99.90
11569;DHT22;5840;46.894;15.542;2023-02-28T12:26:56;2.50;99.90
11569;DHT22;5840;46.894;15.542;2023-02-28T12:29:28;2.60;99.90
11569;DHT22;5840;46.894;15.542;2023-02-28T12:31:58;2.70;99.90
11569;DHT22;5840;46.894;15.542;2023-02-28T12:34:31;2.80;99.90
11569;DHT22;5840;46.894;15.542;2023-02-28T12:37:03;2.80;99.90
11569;DHT22;5840;46.894;15.542;2023-02-28T12:39:36;2.90;99.90
11569;DHT22;5840;46.894;15.542;2023-02-28T12:42:10;3.00;99.90
11569;DHT22;5840;46.894;15.542;2023-02-28T12:44:44;3.00;99.90
11569;DHT22;5840;46.894;15.542;2023-02-28T12:47:14;3.00;99.90
11569;DHT22;5840;46.894;15.542;2023-02-28T12:49:46;3.10;99.90
11569;DHT22;5840;46.894;15.542;2023-02-28T12:52:17;3.20;99.90
11569;DHT22;5840;46.894;15.542;2023-02-28T12:54:49;3.20;99.90
11569;DHT22;5840;46.894;15.542;2023-02-28T12:57:31;3.20;99.90
11569;DHT22;5840;46.894;15.542;2023-02-28T13:00:03;3.30;99.90
11569;DHT22;5840;46.894;15.542;2023-02-28T13:02:56;3.20;99.90
11569;DHT22;5840;46.894;15.542;2023-02-28T13:05:49;3.20;99.90
11569;DHT22;5840;46.894;15.542;2023-02-28T13:08:47;3.30;99.90
11569;DHT22;5840;46.894;15.542;2023-02-28T13:11:27;3.30;99.90
11569;DHT22;5840;46.894;15.542;2023-02-28T13:14:01;3.30;99.90
11569;DHT22;5840;46.894;15.542;2023-02-28T13:16:54;3.40;99.90
11569;DHT22;5840;46.894;15.542;2023-02-28T13:19:22;3.50;99.90
11569;DHT22;5840;46.894;15.542;2023-02-28T13:21:51;3.60;99.90
11569;DHT22;5840;46.894;15.542;2023-02-28T13:24:40;3.70;99.90
11569;DHT22;5840;46.894;15.542;2023-02-28T13:33:23;4.30;99.90
11569;DHT22;5840;46.894;15.542;2023-02-28T13:36:07;4.50;99.90
11569;DHT22;5840;46.894;15.542;2023-02-28T13:38:38;4.50;99.90
11569;DHT22;5840;46.894;15.542;2023-02-28T13:44:22;4.70;99.70
11569;DHT22;5840;46.894;15.542;2023-02-28T13:47:23;5.10;99.30
11569;DHT22;5840;46.894;15.542;2023-02-28T13:50:15;5.30;98.50
11569;DHT22;5840;46.894;15.542;2023-02-28T13:52:48;5.30;98.60
11569;DHT22;5840;46.894;15.542;2023-02-28T13:55:27;5.20;98.70
11569;DHT22;5840;46.894;15.542;2023-02-28T13:58:08;5.00;98.50
11569;DHT22;5840;46.894;15.542;2023-02-28T14:00:48;4.90;99.50
11569;DHT22;5840;46.894;15.542;2023-02-28T14:03:30;4.70;99.10
11569;DHT22;5840;46.894;15.542;2023-02-28T14:06:16;4.60;99.40
11569;DHT22;5840;46.894;15.542;2023-02-28T14:08:54;4.60;99.90
11569;DHT22;5840;46.894;15.542;2023-02-28T14:11:27;4.60;99.80
11569;DHT22;5840;46.894;15.542;2023-02-28T14:13:55;4.70;99.90
11569;DHT22;5840;46.894;15.542;2023-02-28T14:16:23;4.70;99.90
11569;DHT22;5840;46.894;15.542;2023-02-28T14:18:56;4.80;99.90
11569;DHT22;5840;46.894;15.542;2023-02-28T14:21:27;4.70;99.60
11569;DHT22;5840;46.894;15.542;2023-02-28T14:27:11;4.60;99.90
11569;DHT22;5840;46.894;15.542;2023-02-28T14:29:59;4.60;99.90
11569;DHT22;5840;46.894;15.542;2023-02-28T14:32:33;4.60;99.90
11569;DHT22;5840;46.894;15.542;2023-02-28T14:35:09;4.60;99.50
11569;DHT22;5840;46.894;15.542;2023-02-28T14:37:42;4.40;99.00
11569;DHT22;5840;46.894;15.542;2023-02-28T14:40:14;4.50;99.60
11569;DHT22;5840;46.894;15.542;2023-02-28T14:42:47;4.50;99.60
11569;DHT22;5840;46.894;15.542;2023-02-28T14:45:18;4.50;99.60
11569;DHT22;5840;46.894;15.542;2023-02-28T14:47:46;4.60;99.20
11569;DHT22;5840;46.894;15.542;2023-02-28T14:50:18;4.60;99.80
11569;DHT22;5840;46.894;15.542;2023-02-28T14:52:50;4.40;99.60
11569;DHT22;5840;46.894;15.542;2023-02-28T14:55:19;4.30;99.70
11569;DHT22;5840;46.894;15.542;2023-02-28T14:57:52;4.30;99.90
11569;DHT22;5840;46.894;15.542;2023-02-28T15:00:23;4.10;99.70
11569;DHT22;5840;46.894;15.542;2023-02-28T15:02:50;4.10;99.90
11569;DHT22;5840;46.894;15.542;2023-02-28T15:05:27;4.10;99.90
11569;DHT22;5840;46.894;15.542;2023-02-28T15:08:06;4.10;99.90
11569;DHT22;5840;46.894;15.542;2023-02-28T15:10:34;4.10;99.90
11569;DHT22;5840;46.894;15.542;2023-02-28T15:13:04;4.10;99.90
11569;DHT22;5840;46.894;15.542;2023-02-28T15:15:42;4.00;99.90
11569;DHT22;5840;46.894;15.542;2023-02-28T15:18:17;4.00;99.90
11569;DHT22;5840;46.894;15.542;2023-02-28T15:20:48;3.90;99.60
11569;DHT22;5840;46.894;15.542;2023-02-28T15:23:18;3.90;99.90
11569;DHT22;5840;46.894;15.542;2023-02-28T15:25:45;3.90;99.90
11569;DHT22;5840;46.894;15.542;2023-02-28T15:28:16;3.90;99.80
11569;DHT22;5840;46.894;15.542;2023-02-28T15:30:55;3.90;99.70
11569;DHT22;5840;46.894;15.542;2023-02-28T15:33:24;3.80;99.40
11569;DHT22;5840;46.894;15.542;2023-02-28T15:36:02;3.90;99.70
11569;DHT22;5840;46.894;15.542;2023-02-28T15:38:34;3.90;99.90
11569;DHT22;5840;46.894;15.542;2023-02-28T15:41:03;3.90;99.90
11569;DHT22;5840;46.894;15.542;2023-02-28T15:43:37;3.90;99.90
11569;DHT22;5840;46.894;15.542;2023-02-28T15:46:06;3.80;99.90
11569;DHT22;5840;46.894;15.542;2023-02-28T15:48:35;3.70;99.90
11569;DHT22;5840;46.894;15.542;2023-02-28T15:51:07;3.70;99.90
11569;DHT22;5840;46.894;15.542;2023-02-28T15:53:47;3.60;99.90
11569;DHT22;5840;46.894;15.542;2023-02-28T15:56:22;3.60;99.90
11569;DHT22;5840;46.894;15.542;2023-02-28T15:58:50;3.50;99.90
11569;DHT22;5840;46.894;15.542;2023-02-28T16:01:24;3.50;99.90
11569;DHT22;5840;46.894;15.542;2023-02-28T16:03:53;3.50;99.90
11569;DHT22;5840;46.894;15.542;2023-02-28T16:06:42;3.40;99.90
11569;DHT22;5840;46.894;15.542;2023-02-28T16:09:13;3.40;99.90
11569;DHT22;5840;46.894;15.542;2023-02-28T16:11:43;3.40;99.90
11569;DHT22;5840;46.894;15.542;2023-02-28T16:14:17;3.30;99.90
11569;DHT22;5840;46.894;15.542;2023-02-28T16:16:46;3.30;99.90
11569;DHT22;5840;46.894;15.542;2023-02-28T16:19:15;3.30;99.90
11569;DHT22;5840;46.894;15.542;2023-02-28T16:21:42;3.30;99.90
11569;DHT22;5840;46.894;15.542;2023-02-28T16:24:10;3.30;99.90
11569;DHT22;5840;46.894;15.542;2023-02-28T16:26:40;3.30;99.90
11569;DHT22;5840;46.894;15.542;2023-02-28T16:29:10;3.30;99.90
11569;DHT22;5840;46.894;15.542;2023-02-28T16:31:40;3.30;99.90
11569;DHT22;5840;46.894;15.542;2023-02-28T16:34:07;3.30;99.90
11569;DHT22;5840;46.894;15.542;2023-02-28T16:36:34;3.30;99.90